createdAt,value
2024-01-24T00:00:15.626Z,94628.20
2024-01-24T00:01:13.252Z,94632.18
2024-01-24T00:01:53.312Z,94624.11
2024-01-24T00:02:27.139Z,94620.79
2024-01-24T00:03:01.274Z,94626.64
2024-01-24T00:03:57.682Z,94620.65
2024-01-24T00:04:31.285Z,94617.02
2024-01-24T00:05:05.000Z,94614.96
2024-01-24T00:05:38.762Z,94614.05
2024-01-24T00:06:12.611Z,94618.77
2024-01-24T00:06:46.592Z,94619.81
2024-01-24T00:07:38.811Z,94624.74
2024-01-24T00:08:12.398Z,94622.41
2024-01-24T00:08:46.075Z,94600.08
2024-01-24T00:09:19.718Z,94605.66
2024-01-24T00:09:53.488Z,94605.02
2024-01-24T00:10:30.121Z,94616.98
2024-01-24T00:11:19.660Z,94605.87
2024-01-24T00:11:53.226Z,94599.02
2024-01-24T00:12:27.159Z,94600.95
2024-01-24T00:13:00.598Z,94598.66
2024-01-24T00:13:34.067Z,94604.55
2024-01-24T00:14:07.684Z,94604.09
2024-01-24T00:15:00.987Z,94610.37
2024-01-24T00:15:34.758Z,94608.75
2024-01-24T00:16:09.253Z,94614.42
2024-01-24T00:16:43.541Z,94614.98
2024-01-24T00:17:17.819Z,94617.34
2024-01-24T00:17:51.854Z,94608.60
2024-01-24T00:18:40.891Z,94612.65
2024-01-24T00:19:14.659Z,94610.23
2024-01-24T00:19:48.780Z,94612.47
2024-01-24T00:20:23.175Z,94609.50
2024-01-24T00:20:57.297Z,94610.45
2024-01-24T00:21:32.350Z,94608.28
2024-01-24T00:22:23.047Z,94605.44
2024-01-24T00:22:57.310Z,94603.84
2024-01-24T00:23:31.312Z,94602.77
2024-01-24T00:24:05.241Z,94602.60
2024-01-24T00:24:38.869Z,94609.61
2024-01-24T00:25:12.536Z,94598.27
2024-01-24T00:26:00.754Z,94598.92
2024-01-24T00:26:34.694Z,94594.50
2024-01-24T00:27:08.706Z,94599.89
2024-01-24T00:27:42.738Z,94596.12
2024-01-24T00:28:16.827Z,94594.61
2024-01-24T00:28:50.739Z,94595.23
2024-01-24T00:29:38.369Z,94596.75
2024-01-24T00:30:12.204Z,94592.09
2024-01-24T00:30:46.269Z,94586.60
2024-01-24T00:31:20.134Z,94590.95
2024-01-24T00:31:54.049Z,94593.36
2024-01-24T00:32:27.914Z,94589.23
2024-01-24T00:33:19.665Z,94587.80
2024-01-24T00:33:56.827Z,94590.23
2024-01-24T00:34:31.338Z,94588.14
2024-01-24T00:35:05.575Z,94586.62
2024-01-24T00:35:39.939Z,94589.99
2024-01-24T00:36:14.902Z,94589.95
2024-01-24T00:37:05.157Z,94583.30
2024-01-24T00:37:39.251Z,94571.88
2024-01-24T00:38:13.070Z,94582.44
2024-01-24T00:38:46.831Z,94581.65
2024-01-24T00:39:20.387Z,94582.19
2024-01-24T00:39:54.155Z,94578.69
2024-01-24T00:40:42.933Z,94575.54
2024-01-24T00:41:16.407Z,94582.05
2024-01-24T00:41:50.121Z,94580.33
2024-01-24T00:42:24.880Z,94588.73
2024-01-24T00:42:59.247Z,94582.12
2024-01-24T00:43:33.038Z,94582.73
2024-01-24T00:44:23.894Z,94576.30
2024-01-24T00:44:57.648Z,94575.06
2024-01-24T00:45:32.578Z,94576.61
2024-01-24T00:46:06.694Z,94568.92
2024-01-24T00:46:40.506Z,94568.61
2024-01-24T00:47:14.292Z,94569.58
2024-01-24T00:48:06.276Z,94573.29
2024-01-24T00:48:40.035Z,94578.79
2024-01-24T00:49:14.099Z,94578.11
2024-01-24T00:49:48.043Z,94579.02
2024-01-24T00:50:21.990Z,94573.52
2024-01-24T00:50:55.679Z,94575.58
2024-01-24T00:51:47.781Z,94579.14
2024-01-24T00:52:21.773Z,94576.73
2024-01-24T00:52:57.209Z,94578.73
2024-01-24T00:53:31.060Z,94575.49
2024-01-24T00:54:05.083Z,94580.44
2024-01-24T00:54:38.938Z,94577.10
2024-01-24T00:55:32.464Z,94561.44
2024-01-24T00:56:06.860Z,94572.65
2024-01-24T00:56:41.615Z,94568.44
2024-01-24T00:57:15.748Z,94561.99
2024-01-24T00:57:49.930Z,94561.02
2024-01-24T00:58:23.853Z,94559.45
2024-01-24T00:59:07.313Z,94556.13
2024-01-24T00:59:41.157Z,94549.81
2024-01-24T01:00:15.828Z,94557.23
2024-01-24T01:00:50.573Z,94559.11
2024-01-24T01:01:24.774Z,94555.20
2024-01-24T01:01:58.706Z,94555.48
2024-01-24T01:02:48.207Z,94550.33
2024-01-24T01:03:22.200Z,94555.89
2024-01-24T01:03:56.698Z,94556.51
2024-01-24T01:04:31.038Z,94550.58
2024-01-24T01:05:05.749Z,94547.48
2024-01-24T01:05:39.608Z,94551.10
2024-01-24T01:06:29.998Z,94550.04
2024-01-24T01:07:04.032Z,94549.65
2024-01-24T01:07:37.695Z,94547.41
2024-01-24T01:08:11.039Z,94547.17
2024-01-24T01:08:44.692Z,94549.90
2024-01-24T01:09:23.166Z,94550.27
2024-01-24T01:10:12.912Z,94548.00
2024-01-24T01:10:46.928Z,94556.31
2024-01-24T01:11:20.739Z,94549.23
2024-01-24T01:11:54.457Z,94551.48
2024-01-24T01:12:28.421Z,94551.29
2024-01-24T01:13:02.318Z,94548.85
2024-01-24T01:13:49.811Z,94541.01
2024-01-24T01:14:23.545Z,94540.46
2024-01-24T01:14:57.590Z,94543.39
2024-01-24T01:15:31.432Z,94548.48
2024-01-24T01:16:05.210Z,94548.63
2024-01-24T01:16:39.037Z,94542.50
2024-01-24T01:17:30.910Z,94535.03
2024-01-24T01:18:04.944Z,94534.80
2024-01-24T01:18:39.294Z,94536.02
2024-01-24T01:19:13.414Z,94539.02
2024-01-24T01:19:47.402Z,94538.10
2024-01-24T01:20:21.147Z,94539.70
2024-01-24T01:21:12.148Z,94545.34
2024-01-24T01:21:47.964Z,94546.41
2024-01-24T01:22:24.020Z,94546.92
2024-01-24T01:22:58.103Z,94546.55
2024-01-24T01:23:31.869Z,94545.17
2024-01-24T01:24:05.800Z,94544.30
2024-01-24T01:25:00.166Z,94541.28
2024-01-24T01:25:34.451Z,94543.61
2024-01-24T01:26:08.169Z,94546.31
2024-01-24T01:26:44.258Z,94549.73
2024-01-24T01:27:18.501Z,94547.56
2024-01-24T01:27:52.184Z,94546.86
2024-01-24T01:28:40.318Z,94540.85
2024-01-24T01:29:15.732Z,94537.75
2024-01-24T01:29:50.586Z,94525.89
2024-01-24T01:30:25.185Z,94529.28
2024-01-24T01:30:58.854Z,94529.38
2024-01-24T01:31:32.409Z,94529.85
2024-01-24T01:32:23.900Z,94537.60
2024-01-24T01:32:57.839Z,94539.73
2024-01-24T01:33:32.058Z,94539.45
2024-01-24T01:34:05.953Z,94536.89
2024-01-24T01:34:40.054Z,94542.19
2024-01-24T01:35:13.847Z,94540.14
2024-01-24T01:36:14.231Z,94534.00
2024-01-24T01:36:56.447Z,94530.89
2024-01-24T01:37:30.636Z,94533.84
2024-01-24T01:38:04.643Z,94529.05
2024-01-24T01:38:38.552Z,94528.50
2024-01-24T01:39:47.792Z,94528.80
2024-01-24T01:40:21.645Z,94536.23
2024-01-24T01:40:56.667Z,94531.06
2024-01-24T01:41:30.243Z,94531.60
2024-01-24T01:42:04.363Z,94528.45
2024-01-24T01:42:38.228Z,94522.29
2024-01-24T01:43:21.533Z,94510.66
2024-01-24T01:43:55.123Z,94513.13
2024-01-24T01:44:29.185Z,94505.27
2024-01-24T01:45:05.125Z,94500.69
2024-01-24T01:45:38.750Z,94495.73
2024-01-24T01:46:16.264Z,94493.56
2024-01-24T01:47:02.654Z,94493.45
2024-01-24T01:47:37.053Z,94495.81
2024-01-24T01:48:11.904Z,94494.75
2024-01-24T01:48:46.198Z,94491.92
2024-01-24T01:49:21.179Z,94492.29
2024-01-24T01:49:55.127Z,94497.98
2024-01-24T01:50:51.603Z,94482.59
2024-01-24T01:51:28.352Z,94484.52
2024-01-24T01:52:02.534Z,94486.77
2024-01-24T01:52:36.023Z,94487.61
2024-01-24T01:53:09.626Z,94490.48
2024-01-24T01:53:43.096Z,94486.36
2024-01-24T01:54:26.886Z,94482.45
2024-01-24T01:55:01.168Z,94485.71
2024-01-24T01:55:36.514Z,94489.00
2024-01-24T01:56:11.897Z,94490.91
2024-01-24T01:56:46.470Z,94493.79
2024-01-24T01:57:20.468Z,94490.09
2024-01-24T01:58:07.852Z,94496.61
2024-01-24T01:58:42.236Z,94504.88
2024-01-24T01:59:17.015Z,94497.17
2024-01-24T01:59:52.041Z,94501.09
2024-01-24T02:00:28.134Z,94495.08
2024-01-24T02:01:02.606Z,94493.19
2024-01-24T02:01:49.196Z,94486.70
2024-01-24T02:02:23.953Z,94489.89
2024-01-24T02:02:57.779Z,94485.13
2024-01-24T02:03:32.608Z,94481.81
2024-01-24T02:04:06.971Z,94483.27
2024-01-24T02:04:44.273Z,94483.39
2024-01-24T02:05:28.620Z,94480.38
2024-01-24T02:06:03.398Z,94476.73
2024-01-24T02:06:38.522Z,94468.40
2024-01-24T02:07:12.456Z,94462.67
2024-01-24T02:07:47.083Z,94463.10
2024-01-24T02:08:21.232Z,94459.06
2024-01-24T02:09:11.877Z,94449.53
2024-01-24T02:09:47.381Z,94450.00
2024-01-24T02:10:21.194Z,94445.85
2024-01-24T02:10:55.557Z,94439.69
2024-01-24T02:11:29.775Z,94441.02
2024-01-24T02:12:03.770Z,94432.98
2024-01-24T02:12:49.566Z,94431.74
2024-01-24T02:13:23.681Z,94425.09
2024-01-24T02:14:00.939Z,94415.51
2024-01-24T02:14:34.944Z,94410.40
2024-01-24T02:15:11.882Z,94401.05
2024-01-24T02:16:26.707Z,94397.39
2024-01-24T02:17:00.158Z,94397.45
2024-01-24T02:17:33.717Z,94394.54
2024-01-24T02:18:07.345Z,94389.31
2024-01-24T02:18:42.906Z,94396.34
2024-01-24T02:19:16.671Z,94398.59
2024-01-24T02:20:05.578Z,94393.88
2024-01-24T02:20:40.041Z,94379.90
2024-01-24T02:21:14.956Z,94389.58
2024-01-24T02:21:48.899Z,94386.96
2024-01-24T02:22:22.841Z,94386.58
2024-01-24T02:23:06.176Z,94386.95
2024-01-24T02:23:54.387Z,94384.56
2024-01-24T02:24:31.098Z,94380.50
2024-01-24T02:25:05.894Z,94376.03
2024-01-24T02:25:39.898Z,94386.59
2024-01-24T02:26:13.664Z,94385.41
2024-01-24T02:26:47.450Z,94385.38
2024-01-24T02:27:30.011Z,94376.29
2024-01-24T02:28:03.974Z,94373.16
2024-01-24T02:28:37.913Z,94378.65
2024-01-24T02:29:13.472Z,94378.42
2024-01-24T02:29:47.947Z,94368.62
2024-01-24T02:30:23.679Z,94375.58
2024-01-24T02:31:11.596Z,94364.67
2024-01-24T02:31:45.349Z,94354.65
2024-01-24T02:32:19.342Z,94355.73
2024-01-24T02:32:53.497Z,94361.32
2024-01-24T02:33:27.865Z,94356.73
2024-01-24T02:34:02.010Z,94351.64
2024-01-24T02:34:53.584Z,94343.68
2024-01-24T02:35:28.919Z,94343.58
2024-01-24T02:36:02.532Z,94344.41
2024-01-24T02:36:36.330Z,94341.44
2024-01-24T02:37:10.399Z,94342.75
2024-01-24T02:37:44.000Z,94343.45
2024-01-24T02:38:34.885Z,94341.67
2024-01-24T02:39:08.902Z,94338.77
2024-01-24T02:39:42.771Z,94342.17
2024-01-24T02:40:16.419Z,94347.70
2024-01-24T02:40:50.314Z,94345.34
2024-01-24T02:41:28.082Z,94348.00
2024-01-24T02:42:12.259Z,94349.91
2024-01-24T02:42:46.622Z,94347.08
2024-01-24T02:43:20.930Z,94349.91
2024-01-24T02:43:55.471Z,94345.84
2024-01-24T02:44:30.213Z,94336.66
2024-01-24T02:45:05.010Z,94331.39
2024-01-24T02:45:52.421Z,94328.30
2024-01-24T02:46:26.644Z,94329.20
2024-01-24T02:47:01.233Z,94329.52
2024-01-24T02:47:35.310Z,94325.02
2024-01-24T02:48:09.233Z,94326.91
2024-01-24T02:48:43.173Z,94317.75
2024-01-24T02:49:30.776Z,94308.81
2024-01-24T02:50:05.941Z,94310.17
2024-01-24T02:50:40.190Z,94297.00
2024-01-24T02:51:23.999Z,94293.08
2024-01-24T02:51:58.554Z,94281.03
2024-01-24T02:52:32.821Z,94274.64
2024-01-24T02:53:19.854Z,94274.33
2024-01-24T02:53:54.093Z,94272.71
2024-01-24T02:54:28.853Z,94262.27
2024-01-24T02:55:02.600Z,94262.20
2024-01-24T02:55:36.626Z,94263.05
2024-01-24T02:56:10.490Z,94268.02
2024-01-24T02:57:01.473Z,94265.25
2024-01-24T02:57:35.981Z,94283.18
2024-01-24T02:58:10.148Z,94294.84
2024-01-24T02:58:43.948Z,94294.33
2024-01-24T02:59:18.167Z,94298.95
2024-01-24T02:59:52.421Z,94306.16
2024-01-24T03:00:44.770Z,94299.98
2024-01-24T03:01:19.155Z,94301.10
2024-01-24T03:01:53.408Z,94299.89
2024-01-24T03:02:27.998Z,94285.98
2024-01-24T03:03:02.359Z,94286.87
2024-01-24T03:03:37.219Z,94288.45
2024-01-24T03:04:28.602Z,94287.29
2024-01-24T03:05:02.969Z,94290.29
2024-01-24T03:05:36.668Z,94281.95
2024-01-24T03:06:11.174Z,94291.15
2024-01-24T03:06:45.414Z,94286.86
2024-01-24T03:07:19.016Z,94288.40
2024-01-24T03:08:02.627Z,94285.23
2024-01-24T03:08:52.379Z,94289.85
2024-01-24T03:09:27.254Z,94299.88
2024-01-24T03:10:01.124Z,94297.09
2024-01-24T03:10:34.978Z,94309.81
2024-01-24T03:11:08.793Z,94312.46
2024-01-24T03:12:00.542Z,94311.80
2024-01-24T03:12:34.634Z,94302.98
2024-01-24T03:13:09.263Z,94317.49
2024-01-24T03:13:43.923Z,94322.20
2024-01-24T03:14:18.290Z,94321.27
2024-01-24T03:14:51.957Z,94321.20
2024-01-24T03:15:42.891Z,94319.02
2024-01-24T03:16:17.586Z,94318.33
2024-01-24T03:16:51.405Z,94315.33
2024-01-24T03:17:25.305Z,94316.70
2024-01-24T03:17:59.366Z,94309.14
2024-01-24T03:18:33.024Z,94306.85
2024-01-24T03:19:21.050Z,94293.68
2024-01-24T03:19:54.953Z,94290.25
2024-01-24T03:20:29.345Z,94291.48
2024-01-24T03:21:02.867Z,94283.23
2024-01-24T03:21:36.634Z,94291.09
2024-01-24T03:22:10.326Z,94295.32
2024-01-24T03:23:05.601Z,94292.27
2024-01-24T03:23:39.751Z,94281.31
2024-01-24T03:24:14.220Z,94276.58
2024-01-24T03:24:47.998Z,94275.04
2024-01-24T03:25:21.895Z,94266.02
2024-01-24T03:25:56.068Z,94264.19
2024-01-24T03:26:44.009Z,94251.89
2024-01-24T03:27:17.697Z,94238.23
2024-01-24T03:27:51.937Z,94253.07
2024-01-24T03:28:26.012Z,94248.86
2024-01-24T03:29:00.024Z,94242.30
2024-01-24T03:29:34.607Z,94247.23
2024-01-24T03:30:21.645Z,94250.36
2024-01-24T03:30:56.250Z,94240.80
2024-01-24T03:31:30.294Z,94242.88
2024-01-24T03:32:04.345Z,94248.91
2024-01-24T03:32:38.444Z,94245.67
2024-01-24T03:33:12.776Z,94244.25
2024-01-24T03:34:07.115Z,94251.17
2024-01-24T03:34:40.966Z,94261.11
2024-01-24T03:35:14.937Z,94258.30
2024-01-24T03:35:49.171Z,94269.24
2024-01-24T03:36:23.257Z,94256.11
2024-01-24T03:36:57.670Z,94259.42
2024-01-24T03:37:41.313Z,94260.77
2024-01-24T03:38:14.853Z,94260.52
2024-01-24T03:38:48.678Z,94263.28
2024-01-24T03:39:22.461Z,94264.84
2024-01-24T03:39:56.149Z,94263.89
2024-01-24T03:40:30.092Z,94256.53
2024-01-24T03:41:22.590Z,94260.45
2024-01-24T03:41:55.977Z,94244.60
2024-01-24T03:42:29.995Z,94259.46
2024-01-24T03:43:04.243Z,94266.27
2024-01-24T03:43:41.749Z,94270.08
2024-01-24T03:44:16.263Z,94268.48
2024-01-24T03:45:04.309Z,94262.83
2024-01-24T03:45:38.392Z,94257.79
2024-01-24T03:46:12.553Z,94266.67
2024-01-24T03:46:46.035Z,94264.44
2024-01-24T03:47:19.906Z,94258.55
2024-01-24T03:47:53.852Z,94250.17
2024-01-24T03:48:41.780Z,94257.35
2024-01-24T03:49:15.500Z,94256.35
2024-01-24T03:49:49.439Z,94248.79
2024-01-24T03:50:23.432Z,94245.10
2024-01-24T03:50:57.317Z,94251.67
2024-01-24T03:51:31.285Z,94252.11
2024-01-24T03:52:21.944Z,94252.14
2024-01-24T03:52:56.209Z,94259.23
2024-01-24T03:53:29.895Z,94260.61
2024-01-24T03:54:03.552Z,94258.56
2024-01-24T03:54:37.323Z,94257.00
2024-01-24T03:55:11.310Z,94258.39
2024-01-24T03:56:03.870Z,94257.39
2024-01-24T03:56:37.600Z,94260.44
2024-01-24T03:57:11.678Z,94257.77
2024-01-24T03:57:45.952Z,94251.30
2024-01-24T03:58:20.465Z,94257.07
2024-01-24T03:58:54.683Z,94254.95
2024-01-24T03:59:45.235Z,94261.44
2024-01-24T04:00:19.117Z,94262.00
2024-01-24T04:00:54.289Z,94264.41
2024-01-24T04:01:28.607Z,94261.11
2024-01-24T04:02:02.395Z,94260.72
2024-01-24T04:02:36.105Z,94262.39
2024-01-24T04:03:26.800Z,94266.48
2024-01-24T04:04:01.016Z,94271.02
2024-01-24T04:04:39.743Z,94265.33
2024-01-24T04:05:16.272Z,94268.30
2024-01-24T04:05:50.887Z,94264.08
2024-01-24T04:07:04.639Z,94269.48
2024-01-24T04:07:38.468Z,94270.78
2024-01-24T04:08:12.278Z,94256.27
2024-01-24T04:08:46.576Z,94261.65
2024-01-24T04:09:20.588Z,94269.14
2024-01-24T04:09:54.412Z,94280.02
2024-01-24T04:10:46.853Z,94275.03
2024-01-24T04:11:21.487Z,94272.54
2024-01-24T04:11:55.163Z,94271.41
2024-01-24T04:12:28.562Z,94274.42
2024-01-24T04:13:02.283Z,94274.85
2024-01-24T04:13:36.045Z,94266.58
2024-01-24T04:14:24.761Z,94259.08
2024-01-24T04:14:59.058Z,94256.82
2024-01-24T04:15:33.450Z,94252.10
2024-01-24T04:16:07.400Z,94255.11
2024-01-24T04:16:41.048Z,94245.50
2024-01-24T04:17:14.897Z,94250.46
2024-01-24T04:18:02.991Z,94251.55
2024-01-24T04:18:37.465Z,94253.73
2024-01-24T04:19:11.758Z,94257.71
2024-01-24T04:19:49.795Z,94253.50
2024-01-24T04:20:24.512Z,94253.35
2024-01-24T04:20:58.777Z,94264.40
2024-01-24T04:21:47.141Z,94249.35
2024-01-24T04:22:23.096Z,94243.84
2024-01-24T04:22:57.402Z,94244.33
2024-01-24T04:23:30.945Z,94247.95
2024-01-24T04:24:04.446Z,94256.55
2024-01-24T04:24:37.836Z,94253.31
2024-01-24T04:25:26.349Z,94257.75
2024-01-24T04:26:00.998Z,94253.67
2024-01-24T04:26:35.187Z,94244.45
2024-01-24T04:27:09.104Z,94249.23
2024-01-24T04:27:43.156Z,94240.88
2024-01-24T04:28:17.366Z,94233.11
2024-01-24T04:29:04.502Z,94222.70
2024-01-24T04:29:39.994Z,94219.62
2024-01-24T04:30:13.836Z,94227.63
2024-01-24T04:30:47.631Z,94230.83
2024-01-24T04:31:21.386Z,94226.90
2024-01-24T04:31:54.605Z,94231.59
2024-01-24T04:32:47.463Z,94229.94
2024-01-24T04:33:21.253Z,94241.80
2024-01-24T04:33:56.657Z,94239.27
2024-01-24T04:34:30.655Z,94241.20
2024-01-24T04:35:05.104Z,94230.41
2024-01-24T04:35:38.525Z,94227.86
2024-01-24T04:36:29.179Z,94214.83
2024-01-24T04:37:02.859Z,94226.69
2024-01-24T04:37:36.870Z,94234.86
2024-01-24T04:38:10.575Z,94222.57
2024-01-24T04:38:45.802Z,94219.28
2024-01-24T04:39:21.188Z,94219.36
2024-01-24T04:40:11.988Z,94213.03
2024-01-24T04:40:45.980Z,94214.32
2024-01-24T04:41:20.051Z,94208.95
2024-01-24T04:42:01.789Z,94212.39
2024-01-24T04:42:42.695Z,94206.02
2024-01-24T04:43:16.252Z,94206.26
2024-01-24T04:44:04.884Z,94198.14
2024-01-24T04:44:39.345Z,94186.63
2024-01-24T04:45:16.156Z,94194.17
2024-01-24T04:45:50.327Z,94196.11
2024-01-24T04:46:24.851Z,94195.56
2024-01-24T04:46:58.906Z,94195.40
2024-01-24T04:47:47.513Z,94201.72
2024-01-24T04:48:21.728Z,94207.28
2024-01-24T04:48:56.003Z,94212.09
2024-01-24T04:49:40.110Z,94206.54
2024-01-24T04:50:19.562Z,94196.33
2024-01-24T04:50:53.438Z,94196.13
2024-01-24T04:51:42.555Z,94195.70
2024-01-24T04:52:16.733Z,94196.13
2024-01-24T04:52:50.668Z,94201.73
2024-01-24T04:53:24.698Z,94191.46
2024-01-24T04:53:58.956Z,94191.68
2024-01-24T04:54:36.764Z,94199.23
2024-01-24T04:55:19.705Z,94185.64
2024-01-24T04:55:53.615Z,94176.45
2024-01-24T04:56:27.787Z,94176.81
2024-01-24T04:57:01.750Z,94169.76
2024-01-24T04:57:35.623Z,94174.42
2024-01-24T04:58:09.363Z,94171.38
2024-01-24T04:59:02.109Z,94164.05
2024-01-24T04:59:43.085Z,94155.67
2024-01-24T05:00:23.829Z,94165.17
2024-01-24T05:00:57.660Z,94174.20
2024-01-24T05:01:31.309Z,94154.14
2024-01-24T05:02:05.057Z,94162.58
2024-01-24T05:02:48.798Z,94167.49
2024-01-24T05:03:22.864Z,94160.66
2024-01-24T05:03:56.880Z,94159.59
2024-01-24T05:04:30.751Z,94161.65
2024-01-24T05:05:08.247Z,94152.86
2024-01-24T05:05:42.390Z,94167.20
2024-01-24T05:06:26.867Z,94170.01
2024-01-24T05:07:00.917Z,94162.80
2024-01-24T05:07:35.856Z,94171.98
2024-01-24T05:08:09.465Z,94160.11
2024-01-24T05:08:43.191Z,94170.68
2024-01-24T05:09:17.001Z,94169.26
2024-01-24T05:10:09.039Z,94167.88
2024-01-24T05:10:42.910Z,94168.65
2024-01-24T05:11:17.031Z,94165.56
2024-01-24T05:11:50.755Z,94167.14
2024-01-24T05:12:24.559Z,94171.76
2024-01-24T05:12:58.191Z,94163.52
2024-01-24T05:13:50.444Z,94171.51
2024-01-24T05:14:24.760Z,94179.95
2024-01-24T05:14:59.375Z,94180.80
2024-01-24T05:15:33.248Z,94171.94
2024-01-24T05:16:07.110Z,94174.70
2024-01-24T05:16:43.423Z,94174.91
2024-01-24T05:17:32.572Z,94160.75
2024-01-24T05:18:06.019Z,94162.69
2024-01-24T05:18:40.100Z,94172.39
2024-01-24T05:19:14.061Z,94166.86
2024-01-24T05:19:47.984Z,94172.55
2024-01-24T05:20:21.595Z,94165.77
2024-01-24T05:21:13.786Z,94160.45
2024-01-24T05:21:47.673Z,94157.05
2024-01-24T05:22:21.014Z,94148.41
2024-01-24T05:22:54.990Z,94153.64
2024-01-24T05:23:28.936Z,94144.70
2024-01-24T05:24:02.720Z,94152.09
2024-01-24T05:24:53.346Z,94145.35
2024-01-24T05:25:26.950Z,94156.12
2024-01-24T05:26:01.134Z,94151.61
2024-01-24T05:26:34.730Z,94148.91
2024-01-24T05:27:09.504Z,94144.00
2024-01-24T05:27:43.208Z,94154.89
2024-01-24T05:28:30.516Z,94161.05
2024-01-24T05:29:05.872Z,94155.23
2024-01-24T05:29:42.747Z,94147.84
2024-01-24T05:30:25.314Z,94151.70
2024-01-24T05:31:10.686Z,94143.79
2024-01-24T05:31:44.432Z,94162.55
2024-01-24T05:32:33.368Z,94169.25
2024-01-24T05:33:07.831Z,94181.30
2024-01-24T05:33:41.276Z,94187.98
2024-01-24T05:34:15.171Z,94187.56
2024-01-24T05:34:49.333Z,94182.69
2024-01-24T05:35:23.692Z,94175.67
2024-01-24T05:36:11.392Z,94185.43
2024-01-24T05:36:44.873Z,94184.70
2024-01-24T05:37:18.633Z,94192.11
2024-01-24T05:37:52.293Z,94187.52
2024-01-24T05:38:25.614Z,94178.05
2024-01-24T05:38:59.646Z,94170.77
2024-01-24T05:39:53.243Z,94164.98
2024-01-24T05:40:26.806Z,94168.06
2024-01-24T05:41:01.493Z,94156.64
2024-01-24T05:41:37.305Z,94159.77
2024-01-24T05:42:10.969Z,94156.90
2024-01-24T05:42:44.576Z,94160.42
2024-01-24T05:43:32.626Z,94163.89
2024-01-24T05:44:06.453Z,94159.82
2024-01-24T05:44:40.588Z,94155.66
2024-01-24T05:45:14.146Z,94156.40
2024-01-24T05:45:52.143Z,94167.74
2024-01-24T05:46:26.129Z,94165.90
2024-01-24T05:47:13.867Z,94160.39
2024-01-24T05:47:47.331Z,94159.77
2024-01-24T05:48:21.350Z,94157.21
2024-01-24T05:48:56.109Z,94163.77
2024-01-24T05:49:32.065Z,94155.33
2024-01-24T05:50:11.636Z,94165.99
2024-01-24T05:50:55.252Z,94165.84
2024-01-24T05:51:29.078Z,94160.13
2024-01-24T05:52:03.184Z,94161.23
2024-01-24T05:52:37.217Z,94168.67
2024-01-24T05:53:11.110Z,94171.04
2024-01-24T05:53:45.404Z,94163.96
2024-01-24T05:54:36.945Z,94166.44
2024-01-24T05:55:14.267Z,94174.80
2024-01-24T05:55:48.930Z,94169.30
2024-01-24T05:56:22.846Z,94173.73
2024-01-24T05:56:56.705Z,94181.27
2024-01-24T05:57:30.396Z,94171.88
2024-01-24T05:58:14.790Z,94179.59
2024-01-24T05:58:48.794Z,94182.17
2024-01-24T05:59:22.922Z,94178.66
2024-01-24T05:59:56.322Z,94188.86
2024-01-24T06:00:30.386Z,94188.23
2024-01-24T06:01:04.396Z,94183.45
2024-01-24T06:01:56.942Z,94192.06
2024-01-24T06:02:31.616Z,94174.73
2024-01-24T06:03:04.999Z,94170.42
2024-01-24T06:03:38.710Z,94168.48
2024-01-24T06:04:12.662Z,94165.89
2024-01-24T06:04:46.516Z,94168.46
2024-01-24T06:05:39.167Z,94173.40
2024-01-24T06:06:13.165Z,94160.23
2024-01-24T06:06:47.011Z,94168.63
2024-01-24T06:07:20.661Z,94161.71
2024-01-24T06:07:54.318Z,94165.10
2024-01-24T06:08:27.992Z,94161.40
2024-01-24T06:09:22.285Z,94177.69
2024-01-24T06:09:56.180Z,94180.68
2024-01-24T06:10:30.720Z,94173.92
2024-01-24T06:11:05.981Z,94178.34
2024-01-24T06:11:39.735Z,94169.20
2024-01-24T06:12:13.521Z,94143.27
2024-01-24T06:13:01.232Z,94172.35
2024-01-24T06:13:34.738Z,94164.77
2024-01-24T06:14:08.235Z,94180.75
2024-01-24T06:14:42.110Z,94183.13
2024-01-24T06:15:16.001Z,94170.10
2024-01-24T06:15:49.846Z,94168.86
2024-01-24T06:16:42.714Z,94180.94
2024-01-24T06:17:16.519Z,94190.95
2024-01-24T06:17:50.514Z,94189.09
2024-01-24T06:18:25.331Z,94188.33
2024-01-24T06:18:59.586Z,94191.52
2024-01-24T06:19:33.427Z,94189.83
2024-01-24T06:20:21.123Z,94196.39
2024-01-24T06:20:54.650Z,94189.83
2024-01-24T06:21:28.487Z,94207.52
2024-01-24T06:22:02.508Z,94209.50
2024-01-24T06:22:36.088Z,94220.67
2024-01-24T06:23:09.600Z,94216.86
2024-01-24T06:24:02.402Z,94217.89
2024-01-24T06:24:36.647Z,94223.49
2024-01-24T06:25:10.161Z,94225.17
2024-01-24T06:25:44.413Z,94228.84
2024-01-24T06:26:20.235Z,94231.28
2024-01-24T06:26:53.882Z,94237.51
2024-01-24T06:27:43.861Z,94236.60
2024-01-24T06:28:17.409Z,94228.27
2024-01-24T06:28:50.955Z,94237.34
2024-01-24T06:30:15.535Z,94234.96
2024-01-24T06:30:26.171Z,94228.84
2024-01-24T06:31:03.066Z,94227.14
2024-01-24T06:31:50.009Z,94232.09
2024-01-24T06:32:24.188Z,94235.77
2024-01-24T06:32:58.450Z,94245.10
2024-01-24T06:33:32.240Z,94244.40
2024-01-24T06:34:06.350Z,94236.11
2024-01-24T06:34:40.481Z,94234.30
2024-01-24T06:35:27.542Z,94227.27
2024-01-24T06:36:02.090Z,94219.66
2024-01-24T06:36:36.378Z,94220.58
2024-01-24T06:37:11.202Z,94221.27
2024-01-24T06:37:44.657Z,94222.50
2024-01-24T06:38:18.110Z,94214.88
2024-01-24T06:39:11.590Z,94215.58
2024-01-24T06:39:45.364Z,94217.79
2024-01-24T06:40:21.329Z,94209.73
2024-01-24T06:40:55.114Z,94213.68
2024-01-24T06:41:29.890Z,94203.28
2024-01-24T06:42:04.151Z,94224.24
2024-01-24T06:42:52.333Z,94222.58
2024-01-24T06:43:26.149Z,94216.77
2024-01-24T06:43:59.540Z,94218.36
2024-01-24T06:44:32.931Z,94220.90
2024-01-24T06:45:07.841Z,94224.60
2024-01-24T06:45:41.985Z,94224.98
2024-01-24T06:46:29.161Z,94221.26
2024-01-24T06:47:02.756Z,94237.11
2024-01-24T06:47:36.118Z,94217.58
2024-01-24T06:48:09.643Z,94231.48
2024-01-24T06:48:43.139Z,94229.23
2024-01-24T06:49:17.094Z,94234.54
2024-01-24T06:50:09.540Z,94226.46
2024-01-24T06:50:43.960Z,94232.17
2024-01-24T06:51:18.871Z,94220.68
2024-01-24T06:51:52.418Z,94219.46
2024-01-24T06:52:25.811Z,94220.27
2024-01-24T06:52:59.795Z,94217.61
2024-01-24T06:53:49.500Z,94227.71
2024-01-24T06:54:24.285Z,94225.65
2024-01-24T06:54:59.462Z,94231.02
2024-01-24T06:55:33.545Z,94228.41
2024-01-24T06:56:09.956Z,94229.80
2024-01-24T06:56:45.370Z,94236.16
2024-01-24T06:57:30.126Z,94232.58
2024-01-24T06:58:05.560Z,94228.63
2024-01-24T06:58:41.884Z,94230.91
2024-01-24T06:59:15.582Z,94232.56
2024-01-24T06:59:49.068Z,94234.09
2024-01-24T07:00:23.513Z,94231.78
2024-01-24T07:01:14.458Z,94225.86
2024-01-24T07:01:48.846Z,94226.48
2024-01-24T07:02:23.087Z,94212.54
2024-01-24T07:02:58.176Z,94217.89
2024-01-24T07:03:31.866Z,94213.39
2024-01-24T07:04:05.823Z,94215.39
2024-01-24T07:04:53.938Z,94211.90
2024-01-24T07:05:27.724Z,94213.09
2024-01-24T07:06:02.167Z,94216.14
2024-01-24T07:06:35.978Z,94212.41
2024-01-24T07:07:10.050Z,94208.44
2024-01-24T07:07:43.857Z,94211.55
2024-01-24T07:08:41.821Z,94209.23
2024-01-24T07:09:17.272Z,94210.21
2024-01-24T07:09:52.683Z,94196.64
2024-01-24T07:10:26.842Z,94194.55
2024-01-24T07:11:00.588Z,94186.33
2024-01-24T07:12:13.641Z,94188.02
2024-01-24T07:12:47.893Z,94184.74
2024-01-24T07:13:22.223Z,94188.36
2024-01-24T07:13:55.478Z,94181.36
2024-01-24T07:14:30.758Z,94174.19
2024-01-24T07:15:06.710Z,94168.45
2024-01-24T07:15:57.460Z,94171.41
2024-01-24T07:16:30.758Z,94174.46